createdAt,value
2017-12-30T00:01:27.714Z,1317.57
2017-12-30T00:03:55.220Z,1314.57
2017-12-30T00:06:22.721Z,1296.17
2017-12-30T00:08:50.262Z,1327.80
2017-12-30T00:11:18.542Z,1304.80
2017-12-30T00:13:46.810Z,1277.63
2017-12-30T00:16:14.346Z,1293.50
2017-12-30T00:18:41.868Z,1308.83
2017-12-30T00:21:09.378Z,1310.93
2017-12-30T00:23:36.909Z,1274.13
2017-12-30T00:26:04.448Z,1332.13
2017-12-30T00:28:32.754Z,1295.80
2017-12-30T00:31:00.302Z,1293.80
2017-12-30T00:33:27.864Z,1297.70
2017-12-30T00:35:55.385Z,1275.23
2017-12-30T00:38:22.877Z,1271.03
2017-12-30T00:40:51.190Z,1283.77
2017-12-30T00:43:18.730Z,1267.70
2017-12-30T00:45:46.273Z,1261.20
2017-12-30T00:48:14.561Z,1270.50
2017-12-30T00:50:42.110Z,1258.40
2017-12-30T00:53:09.617Z,1259.07
2017-12-30T00:55:37.174Z,1269.50
2017-12-30T00:58:04.668Z,1267.27
2017-12-30T01:00:32.449Z,1241.40
2017-12-30T01:03:00.011Z,1247.80
2017-12-30T01:05:27.572Z,1230.60
2017-12-30T01:07:55.152Z,1222.07
2017-12-30T01:10:22.700Z,1221.53
2017-12-30T01:12:50.197Z,1227.77
2017-12-30T01:15:17.691Z,1214.07
2017-12-30T01:17:45.222Z,1222.30
2017-12-30T01:20:13.571Z,1208.93
2017-12-30T01:22:41.086Z,1211.80
2017-12-30T01:25:09.414Z,1195.93
2017-12-30T01:27:36.929Z,1167.70
2017-12-30T01:30:05.198Z,1159.00
2017-12-30T01:32:32.726Z,1137.73
2017-12-30T01:35:00.224Z,1129.03
2017-12-30T01:37:27.762Z,1152.40
2017-12-30T01:39:55.272Z,1130.00
2017-12-30T01:42:23.585Z,1117.27
2017-12-30T01:44:51.118Z,1114.63
2017-12-30T01:47:19.382Z,1127.47
2017-12-30T01:49:46.913Z,1123.20
2017-12-30T01:52:14.421Z,1109.43
2017-12-30T01:54:42.694Z,1125.20
2017-12-30T01:57:10.986Z,1114.20
2017-12-30T01:59:39.259Z,1114.63
2017-12-30T02:02:07.542Z,1122.70
2017-12-30T02:04:35.810Z,1096.40
2017-12-30T02:07:03.350Z,1102.43
2017-12-30T02:09:30.892Z,1089.07
2017-12-30T02:11:58.425Z,1103.43
2017-12-30T02:14:25.925Z,1083.17
2017-12-30T02:16:53.454Z,1100.97
2017-12-30T02:19:20.978Z,1086.00
2017-12-30T02:21:48.526Z,1091.47
2017-12-30T02:24:16.030Z,1091.87
2017-12-30T02:26:44.291Z,1083.73
2017-12-30T02:29:11.820Z,1068.07
2017-12-30T02:31:39.319Z,1081.30
2017-12-30T02:34:06.867Z,1080.10
2017-12-30T02:36:34.360Z,1071.10
2017-12-30T02:39:02.670Z,1085.07
2017-12-30T02:41:30.196Z,1068.63
2017-12-30T02:43:57.737Z,1066.70
2017-12-30T02:46:25.245Z,1055.03
2017-12-30T02:48:52.786Z,1062.97
2017-12-30T02:51:20.321Z,1090.60
2017-12-30T02:53:47.847Z,1097.00
2017-12-30T02:56:15.350Z,1108.37
2017-12-30T02:58:42.901Z,1105.77
2017-12-30T03:01:10.402Z,1119.57
2017-12-30T03:03:37.904Z,1133.73
2017-12-30T03:06:05.441Z,1154.67
2017-12-30T03:08:33.706Z,1161.67
2017-12-30T03:11:01.202Z,1162.10
2017-12-30T03:13:28.756Z,1183.50
2017-12-30T03:15:57.058Z,1187.93
2017-12-30T03:18:24.585Z,1191.83
2017-12-30T03:20:52.081Z,1209.77
2017-12-30T03:23:19.639Z,1199.50
2017-12-30T03:25:47.130Z,1199.67
2017-12-30T03:28:14.679Z,1205.27
2017-12-30T03:30:42.174Z,1230.90
2017-12-30T03:33:09.665Z,1218.70
2017-12-30T03:35:37.198Z,1212.23
2017-12-30T03:38:04.733Z,1195.27
2017-12-30T03:40:32.225Z,1170.47
2017-12-30T03:42:59.757Z,1156.70
2017-12-30T03:45:27.296Z,1160.07
2017-12-30T03:47:55.558Z,1164.07
2017-12-30T03:50:23.076Z,1175.07
2017-12-30T03:52:50.628Z,1182.00
2017-12-30T03:55:18.139Z,1177.43
2017-12-30T03:57:45.634Z,1177.53
2017-12-30T04:00:13.937Z,1172.87
2017-12-30T04:02:41.432Z,1178.97
2017-12-30T04:05:08.930Z,1156.33
2017-12-30T04:07:37.221Z,1133.60
2017-12-30T04:10:05.522Z,1145.20
2017-12-30T04:12:33.045Z,1125.10
2017-12-30T04:15:00.554Z,1134.03
2017-12-30T04:17:28.114Z,1167.30
2017-12-30T04:19:55.610Z,1140.30
2017-12-30T04:22:23.138Z,1124.00
2017-12-30T04:24:50.673Z,1125.23
2017-12-30T04:27:18.209Z,1131.33
2017-12-30T04:29:45.719Z,1117.07
2017-12-30T04:32:13.386Z,1145.80
2017-12-30T04:34:41.666Z,1140.17
2017-12-30T04:37:09.202Z,1130.77
2017-12-30T04:39:36.732Z,1107.23
2017-12-30T04:42:04.238Z,1105.00
2017-12-30T04:44:32.526Z,1123.00
2017-12-30T04:47:00.817Z,1151.73
2017-12-30T04:49:28.306Z,1152.40
2017-12-30T04:51:55.826Z,1180.90
2017-12-30T04:54:23.373Z,1197.00
2017-12-30T04:56:50.870Z,1185.10
2017-12-30T04:59:19.249Z,1159.93
2017-12-30T05:01:47.523Z,1162.77
2017-12-30T05:04:15.858Z,1181.97
2017-12-30T05:06:43.352Z,1172.43
2017-12-30T05:09:10.886Z,1148.87
2017-12-30T05:11:38.384Z,1142.80
2017-12-30T05:14:05.921Z,1142.73
2017-12-30T05:16:33.421Z,1159.90
2017-12-30T05:19:01.686Z,1182.43
2017-12-30T05:21:29.214Z,1197.07
2017-12-30T05:23:56.705Z,1161.20
2017-12-30T05:26:24.225Z,1118.43
2017-12-30T05:28:51.717Z,1107.17
2017-12-30T05:31:19.244Z,1083.17
2017-12-30T05:33:46.753Z,1069.97
2017-12-30T05:36:14.313Z,1110.73
2017-12-30T05:38:41.814Z,1067.60
2017-12-30T05:41:10.063Z,1098.30
2017-12-30T05:43:37.589Z,1084.43
2017-12-30T05:46:05.093Z,1070.90
2017-12-30T05:48:32.618Z,1056.70
2017-12-30T05:51:00.165Z,1054.93
2017-12-30T05:53:27.662Z,1030.37
2017-12-30T05:55:55.149Z,1020.60
2017-12-30T05:58:22.665Z,979.23
2017-12-30T06:00:50.157Z,980.33
2017-12-30T06:03:17.696Z,951.17
2017-12-30T06:05:45.211Z,935.40
2017-12-30T06:08:12.711Z,960.13
2017-12-30T06:10:40.233Z,947.27
2017-12-30T06:13:07.737Z,923.43
2017-12-30T06:15:35.256Z,949.63
2017-12-30T06:18:02.798Z,907.37
2017-12-30T06:20:30.357Z,731.70
2017-12-30T06:22:57.845Z,737.33
2017-12-30T06:25:25.374Z,809.67
2017-12-30T06:27:52.864Z,803.10
2017-12-30T06:30:20.410Z,876.73
2017-12-30T06:32:47.902Z,827.60
2017-12-30T06:35:15.433Z,825.47
2017-12-30T06:37:42.929Z,825.03
2017-12-30T06:40:10.474Z,829.33
2017-12-30T06:42:38.005Z,781.97
2017-12-30T06:45:05.529Z,719.37
2017-12-30T06:47:33.063Z,810.60
2017-12-30T06:50:00.551Z,801.13
2017-12-30T06:52:28.081Z,822.87
2017-12-30T06:54:55.605Z,758.30
2017-12-30T06:57:23.110Z,800.83
2017-12-30T06:59:50.647Z,817.57
2017-12-30T07:02:18.184Z,808.87
2017-12-30T07:04:46.474Z,749.30
2017-12-30T07:07:14.763Z,781.00
2017-12-30T07:09:42.294Z,768.27
2017-12-30T07:12:09.810Z,757.30
2017-12-30T07:14:37.297Z,766.70
2017-12-30T07:17:04.847Z,749.97
2017-12-30T07:19:32.377Z,804.47
2017-12-30T07:21:59.942Z,793.37
2017-12-30T07:24:27.447Z,827.70
2017-12-30T07:26:55.001Z,863.07
2017-12-30T07:29:22.486Z,880.10
2017-12-30T07:31:50.005Z,898.23
2017-12-30T07:34:17.557Z,909.60
2017-12-30T07:36:45.814Z,897.00
2017-12-30T07:39:13.316Z,901.17
2017-12-30T07:41:40.840Z,926.03
2017-12-30T07:44:08.382Z,930.97
2017-12-30T07:46:35.886Z,915.40
2017-12-30T07:49:04.146Z,845.23
2017-12-30T07:51:31.694Z,863.27
2017-12-30T07:53:59.184Z,829.13
2017-12-30T07:56:27.499Z,883.20
2017-12-30T07:58:54.989Z,851.57
2017-12-30T08:01:22.566Z,886.57
2017-12-30T08:03:50.079Z,885.23
2017-12-30T08:06:17.585Z,937.83
2017-12-30T08:08:45.109Z,959.80
2017-12-30T08:11:12.726Z,942.33
2017-12-30T08:13:40.210Z,969.80
2017-12-30T08:16:08.473Z,967.73
2017-12-30T08:18:36.026Z,990.27
2017-12-30T08:21:03.540Z,1005.77
2017-12-30T08:23:31.115Z,1002.30
2017-12-30T08:25:58.638Z,1011.37
2017-12-30T08:28:26.125Z,994.43
2017-12-30T08:30:54.398Z,980.33
2017-12-30T08:33:21.938Z,997.13
2017-12-30T08:35:49.477Z,1016.40
2017-12-30T08:38:16.963Z,1020.07
2017-12-30T08:40:44.500Z,1019.50
2017-12-30T08:43:12.005Z,1046.97
2017-12-30T08:45:40.765Z,1020.93
2017-12-30T08:48:08.339Z,1041.33
2017-12-30T08:50:35.842Z,1069.13
2017-12-30T08:53:04.103Z,1029.53
2017-12-30T08:55:31.638Z,1021.03
2017-12-30T08:57:59.130Z,975.10
2017-12-30T09:00:27.398Z,1003.30
2017-12-30T09:02:54.940Z,929.80
2017-12-30T09:05:22.500Z,933.90
2017-12-30T09:07:50.043Z,901.17
2017-12-30T09:10:17.531Z,931.07
2017-12-30T09:12:45.058Z,911.00
2017-12-30T09:15:12.546Z,909.60
2017-12-30T09:17:40.073Z,900.00
2017-12-30T09:20:08.361Z,940.80
2017-12-30T09:22:35.855Z,917.83
2017-12-30T09:25:03.382Z,921.57
2017-12-30T09:27:30.875Z,823.27
2017-12-30T09:29:58.361Z,822.30
2017-12-30T09:32:25.889Z,821.60
2017-12-30T09:34:53.370Z,800.40
2017-12-30T09:37:20.886Z,824.00
2017-12-30T09:39:49.174Z,809.73
2017-12-30T09:42:16.723Z,721.30
2017-12-30T09:44:45.021Z,778.50
2017-12-30T09:47:12.562Z,722.37
2017-12-30T09:49:40.072Z,734.93
2017-12-30T09:52:07.645Z,774.63
2017-12-30T09:54:35.126Z,730.13
2017-12-30T09:57:02.622Z,691.40
2017-12-30T09:59:30.914Z,674.90
2017-12-30T10:01:59.169Z,721.53
2017-12-30T10:04:26.702Z,794.93
2017-12-30T10:06:54.249Z,534.70
2017-12-30T10:09:21.797Z,620.30
2017-12-30T10:11:49.290Z,601.07
2017-12-30T10:14:16.770Z,660.77
2017-12-30T10:16:44.292Z,548.00
2017-12-30T11:48:20.496Z,162.17
2017-12-30T11:50:47.986Z,136.37
2017-12-30T11:53:15.550Z,175.47
2017-12-30T11:55:43.057Z,126.43
2017-12-30T11:58:10.609Z,198.37
2017-12-30T12:00:38.162Z,256.70
2017-12-30T12:03:06.414Z,260.20
2017-12-30T12:05:33.928Z,272.03
2017-12-30T12:08:01.462Z,256.97
2017-12-30T12:10:28.961Z,273.53
2017-12-30T12:12:56.489Z,336.80
2017-12-30T12:15:24.017Z,400.83
2017-12-30T12:17:51.502Z,384.43
2017-12-30T12:20:19.041Z,368.23
2017-12-30T12:22:46.533Z,443.30
2017-12-30T12:25:14.874Z,373.67
2017-12-30T12:27:42.441Z,325.37
2017-12-30T12:30:09.982Z,218.00
2017-12-30T12:32:37.490Z,270.03
2017-12-30T12:35:05.013Z,181.90
2017-12-30T12:37:32.506Z,288.20
2017-12-30T12:40:00.037Z,265.13
2017-12-30T12:42:27.565Z,281.87
2017-12-30T12:44:55.086Z,251.90
2017-12-30T12:47:22.606Z,323.53
2017-12-30T12:49:50.853Z,315.27
2017-12-30T12:52:18.354Z,339.67
2017-12-30T12:54:46.640Z,289.07
2017-12-30T12:57:14.132Z,318.53
2017-12-30T12:59:41.648Z,275.53
2017-12-30T13:02:09.930Z,293.73
2017-12-30T13:04:38.216Z,309.23
2017-12-30T13:07:06.517Z,272.60
2017-12-30T13:09:34.016Z,232.27
2017-12-30T13:12:01.562Z,240.47
2017-12-30T13:14:29.087Z,210.03
2017-12-30T13:16:57.337Z,230.40
2017-12-30T13:19:24.927Z,272.23
2017-12-30T13:21:52.380Z,245.83
2017-12-30T13:24:19.874Z,199.60
2017-12-30T13:26:47.402Z,380.47
2017-12-30T13:29:14.893Z,394.17
2017-12-30T13:31:42.380Z,347.57
2017-12-30T13:34:09.912Z,363.07
2017-12-30T13:36:38.161Z,321.77
2017-12-30T13:39:05.706Z,331.97
2017-12-30T13:41:33.224Z,285.10
2017-12-30T13:44:01.486Z,255.63
2017-12-30T13:46:28.970Z,268.47
2017-12-30T13:48:56.489Z,304.57
2017-12-30T13:51:24.013Z,234.97
2017-12-30T13:53:51.509Z,231.03
2017-12-30T13:56:19.038Z,265.23
2017-12-30T13:58:46.529Z,291.03
2017-12-30T14:01:14.038Z,234.77
2017-12-30T14:03:42.335Z,288.57
2017-12-30T14:06:09.833Z,169.43
2017-12-30T14:08:37.374Z,234.43
2017-12-30T14:11:04.865Z,334.03
2017-12-30T14:13:32.398Z,345.57
2017-12-30T14:15:59.918Z,292.90
2017-12-30T14:18:27.489Z,292.47
2017-12-30T14:20:55.034Z,293.90
2017-12-30T14:23:22.538Z,317.17
2017-12-30T14:25:50.786Z,318.80
2017-12-30T14:28:18.309Z,269.00
2017-12-30T14:30:45.806Z,345.63
2017-12-30T14:33:13.321Z,281.57
2017-12-30T14:35:40.813Z,316.37
2017-12-30T14:38:08.338Z,292.00
2017-12-30T14:40:35.850Z,292.53
2017-12-30T14:43:03.338Z,313.77
2017-12-30T14:45:30.878Z,296.87
2017-12-30T14:47:58.365Z,288.87
2017-12-30T14:50:25.883Z,269.67
2017-12-30T14:52:53.412Z,289.80
2017-12-30T14:55:21.718Z,306.97
2017-12-30T14:57:49.217Z,197.20
2017-12-30T15:00:16.750Z,266.27
2017-12-30T15:02:44.247Z,316.43
2017-12-30T15:05:11.750Z,285.63
2017-12-30T15:07:40.053Z,325.43
2017-12-30T15:10:07.550Z,328.13
2017-12-30T15:12:35.093Z,351.30
2017-12-30T15:15:02.602Z,339.43
2017-12-30T15:17:30.129Z,311.83
2017-12-30T15:19:57.677Z,270.83
2017-12-30T15:22:25.193Z,281.40
2017-12-30T15:24:52.731Z,358.73
2017-12-30T15:27:20.223Z,390.47
2017-12-30T15:29:48.475Z,360.43
2017-12-30T15:32:16.001Z,476.43
2017-12-30T15:34:43.509Z,565.20
2017-12-30T15:37:11.034Z,620.20
2017-12-30T15:39:38.524Z,646.37
2017-12-30T15:42:06.064Z,644.03
2017-12-30T15:44:33.544Z,674.07
2017-12-30T15:47:01.058Z,690.53
2017-12-30T15:49:29.359Z,756.97
2017-12-30T15:51:56.885Z,840.70
2017-12-30T15:54:24.390Z,777.63
2017-12-30T15:56:51.893Z,820.87
2017-12-30T15:59:19.423Z,852.50
2017-12-30T16:01:46.910Z,794.97
2017-12-30T16:04:14.436Z,795.27
2017-12-30T16:06:41.941Z,825.83
2017-12-30T16:09:09.489Z,777.50
2017-12-30T16:11:36.985Z,746.57
2017-12-30T16:14:04.475Z,755.20
2017-12-30T16:16:32.770Z,772.30
2017-12-30T16:19:00.295Z,768.43
2017-12-30T16:21:27.840Z,794.77
2017-12-30T16:23:55.423Z,829.90
2017-12-30T16:26:22.909Z,810.47
2017-12-30T16:28:51.204Z,812.93
2017-12-30T16:31:18.710Z,769.70
2017-12-30T16:33:46.239Z,776.97
2017-12-30T16:36:13.731Z,802.17
2017-12-30T16:38:41.260Z,780.10
2017-12-30T16:41:08.809Z,788.13
2017-12-30T16:43:36.330Z,819.50
2017-12-30T16:46:03.865Z,833.97
2017-12-30T16:48:31.381Z,795.30
2017-12-30T16:50:59.676Z,835.37
2017-12-30T16:53:27.937Z,828.70
2017-12-30T16:55:55.490Z,844.53
2017-12-30T16:58:22.976Z,805.70
2017-12-30T17:00:51.266Z,827.03
2017-12-30T17:03:19.562Z,804.47
2017-12-30T17:05:47.065Z,819.60
2017-12-30T17:08:14.605Z,835.93
2017-12-30T17:10:42.124Z,819.90
2017-12-30T17:13:09.654Z,820.93
2017-12-30T17:15:37.146Z,818.50
2017-12-30T17:18:04.681Z,880.43
2017-12-30T17:20:32.218Z,853.60
2017-12-30T17:22:59.754Z,790.93
2017-12-30T17:25:28.062Z,801.87
2017-12-30T17:27:55.582Z,865.73
2017-12-30T17:30:23.882Z,916.83
2017-12-30T17:32:52.156Z,826.50
2017-12-30T17:35:20.414Z,787.57
2017-12-30T17:37:47.949Z,725.70
2017-12-30T17:40:15.477Z,732.67
2017-12-30T17:42:43.060Z,743.23
2017-12-30T17:45:10.553Z,684.17
2017-12-30T17:47:38.095Z,678.60
2017-12-30T17:50:05.593Z,640.97
2017-12-30T17:52:33.094Z,643.30
2017-12-30T17:55:00.637Z,611.80
2017-12-30T17:57:28.145Z,585.67
2017-12-30T17:59:55.673Z,613.97
2017-12-30T18:02:23.933Z,602.73
2017-12-30T18:04:51.453Z,609.53
2017-12-30T18:07:18.975Z,556.97
2017-12-30T18:09:47.270Z,565.40
2017-12-30T18:12:14.781Z,571.03
2017-12-30T18:14:42.313Z,564.10
2017-12-30T18:17:09.835Z,623.17
2017-12-30T18:19:37.376Z,615.67
2017-12-30T18:22:04.861Z,681.10
2017-12-30T18:24:32.364Z,803.50
2017-12-30T18:26:59.909Z,852.03
2017-12-30T18:29:28.197Z,894.43
2017-12-30T18:31:56.449Z,890.33
2017-12-30T18:34:24.002Z,892.33
2017-12-30T18:36:51.488Z,879.17
2017-12-30T18:39:19.770Z,962.43
2017-12-30T18:41:48.065Z,966.03
2017-12-30T18:44:15.611Z,961.30
2017-12-30T18:46:43.871Z,947.77
2017-12-30T18:49:11.398Z,930.13
2017-12-30T18:51:38.921Z,943.23
2017-12-30T18:54:07.206Z,963.53
2017-12-30T18:56:35.501Z,1001.50
2017-12-30T18:59:02.998Z,1037.57
2017-12-30T19:01:30.531Z,1019.60
2017-12-30T19:03:58.071Z,1003.07
2017-12-30T19:06:25.590Z,1021.07
2017-12-30T19:08:53.143Z,989.00
2017-12-30T19:11:20.789Z,1026.60
2017-12-30T19:13:48.318Z,1011.23
2017-12-30T19:16:15.868Z,1024.67
2017-12-30T19:18:43.362Z,1018.47
2017-12-30T19:21:11.630Z,1016.17
2017-12-30T19:23:39.165Z,1022.80
2017-12-30T19:26:06.665Z,1021.23
2017-12-30T19:28:34.946Z,993.23
2017-12-30T19:31:03.213Z,988.43
2017-12-30T19:33:30.780Z,1007.57
2017-12-30T19:35:58.290Z,1000.47
2017-12-30T19:38:25.846Z,990.97
2017-12-30T19:40:53.334Z,991.03
2017-12-30T19:43:20.840Z,1042.17
2017-12-30T19:45:48.371Z,983.40
2017-12-30T19:48:15.908Z,995.67
2017-12-30T19:50:43.402Z,959.57
2017-12-30T19:53:10.941Z,971.60
2017-12-30T19:55:38.429Z,966.03
2017-12-30T19:58:05.928Z,1045.97
2017-12-30T20:00:34.221Z,956.77
2017-12-30T20:03:02.518Z,978.70
2017-12-30T20:05:30.059Z,1019.87
2017-12-30T20:07:58.362Z,1016.37
2017-12-30T20:10:25.857Z,1023.77
2017-12-30T20:12:53.351Z,1070.20
2017-12-30T20:15:20.881Z,1057.03
2017-12-30T20:17:48.388Z,1161.97
2017-12-30T20:20:16.711Z,1097.77
2017-12-30T20:22:44.211Z,1090.33
2017-12-30T20:25:11.702Z,1080.07
2017-12-30T20:27:40.019Z,1116.33
2017-12-30T20:30:07.565Z,1129.80
2017-12-30T20:32:35.061Z,1159.23
2017-12-30T20:35:02.607Z,1162.40
2017-12-30T20:37:30.129Z,1159.63
2017-12-30T20:39:58.394Z,1154.73
2017-12-30T20:42:25.955Z,1195.67
2017-12-30T20:44:53.476Z,1189.10
2017-12-30T20:47:21.017Z,1190.80
2017-12-30T20:49:48.522Z,1190.77
2017-12-30T20:52:16.017Z,1198.67
2017-12-30T20:54:43.561Z,1196.53
2017-12-30T20:57:11.078Z,1197.83
2017-12-30T20:59:38.633Z,1219.33
2017-12-30T21:02:06.898Z,1216.97
2017-12-30T21:04:35.170Z,1228.70
2017-12-30T21:07:02.713Z,1217.80
2017-12-30T21:09:30.208Z,1233.10
2017-12-30T21:11:58.498Z,1208.53
2017-12-30T21:14:26.770Z,1219.73
2017-12-30T21:16:55.059Z,1207.93
2017-12-30T21:19:23.328Z,1231.33
2017-12-30T21:21:51.618Z,1223.10
2017-12-30T21:24:19.886Z,1241.10
2017-12-30T21:26:47.425Z,1209.33
2017-12-30T21:29:14.951Z,1202.70
2017-12-30T21:31:42.469Z,1210.50
2017-12-30T21:34:10.018Z,1203.63
2017-12-30T21:36:37.531Z,1216.47
2017-12-30T21:39:05.068Z,1217.60
2017-12-30T21:41:32.578Z,1219.37
2017-12-30T21:44:00.110Z,1238.80
2017-12-30T21:46:27.697Z,1211.63
2017-12-30T21:48:55.193Z,1246.43
2017-12-30T21:51:22.731Z,1211.67
2017-12-30T21:53:50.242Z,1250.93
2017-12-30T21:56:17.746Z,1155.30
2017-12-30T21:58:45.270Z,1160.70
2017-12-30T22:01:12.780Z,1155.63
2017-12-30T22:03:40.325Z,1178.47
2017-12-30T22:06:07.867Z,1234.40
2017-12-30T22:08:36.137Z,1170.33
2017-12-30T22:11:03.636Z,1230.67
2017-12-30T22:13:31.175Z,1165.73
2017-12-30T22:15:58.672Z,1146.43
2017-12-30T22:18:26.219Z,1093.93
2017-12-30T22:20:54.485Z,1116.07
2017-12-30T22:23:21.985Z,1175.67
2017-12-30T22:25:49.529Z,1167.97
2017-12-30T22:28:17.026Z,1092.40
2017-12-30T22:30:44.525Z,1124.93
2017-12-30T22:33:12.062Z,1128.03
2017-12-30T22:35:39.580Z,1091.23
2017-12-30T22:38:07.118Z,1101.77
2017-12-30T22:40:34.663Z,1057.53
2017-12-30T22:43:02.193Z,1156.13
2017-12-30T22:45:29.693Z,1073.53
2017-12-30T22:47:57.235Z,1316.83
2017-12-30T22:50:24.728Z,1109.87
2017-12-30T22:52:52.260Z,1091.43
2017-12-30T22:55:19.762Z,1047.23
2017-12-30T22:57:47.290Z,1049.53
2017-12-30T23:00:14.806Z,1199.83
2017-12-30T23:02:43.129Z,1080.87
2017-12-30T23:05:10.630Z,1162.97
2017-12-30T23:07:38.898Z,1054.90
2017-12-30T23:10:06.463Z,1062.07
2017-12-30T23:12:34.003Z,1047.27
2017-12-30T23:15:01.467Z,1043.60
2017-12-30T23:17:29.041Z,997.77
2017-12-30T23:19:56.558Z,1154.43
2017-12-30T23:22:24.854Z,966.37
2017-12-30T23:24:52.356Z,1077.37
2017-12-30T23:27:19.908Z,1024.07
2017-12-30T23:29:47.405Z,1019.63
2017-12-30T23:32:14.979Z,947.90
2017-12-30T23:34:43.281Z,926.97
2017-12-30T23:37:10.770Z,935.60
2017-12-30T23:39:38.281Z,920.57
2017-12-30T23:42:05.812Z,924.50
2017-12-30T23:44:33.318Z,970.57
2017-12-30T23:47:01.610Z,862.30
2017-12-30T23:49:29.958Z,898.10
2017-12-30T23:51:58.285Z,857.13
2017-12-30T23:54:25.790Z,856.67
2017-12-30T23:56:53.317Z,864.97
2017-12-30T23:59:20.805Z,841.70
